sensor_id;sensor_type;location;lat;lon;timestamp;P1;durP1;ratioP1;P2;durP2;ratioP2
51529;SDS011;37613;51.788;21.582;2022-10-31T00:01:13;54.80;;;30.20;;
51529;SDS011;37613;51.788;21.582;2022-10-31T00:05:18;56.30;;;31.00;;
51529;SDS011;37613;51.788;21.582;2022-10-31T00:09:20;57.30;;;32.50;;
51529;SDS011;37613;51.788;21.582;2022-10-31T00:13:22;52.10;;;29.80;;
51529;SDS011;37613;51.788;21.582;2022-10-31T00:17:24;53.40;;;32.30;;
51529;SDS011;37613;51.788;21.582;2022-10-31T00:21:26;50.80;;;28.60;;
51529;SDS011;37613;51.788;21.582;2022-10-31T00:25:29;51.40;;;28.20;;
51529;SDS011;37613;51.788;21.582;2022-10-31T00:29:39;49.30;;;27.90;;
51529;SDS011;37613;51.788;21.582;2022-10-31T00:33:41;47.00;;;27.20;;
51529;SDS011;37613;51.788;21.582;2022-10-31T00:37:43;49.10;;;26.70;;
51529;SDS011;37613;51.788;21.582;2022-10-31T00:41:44;45.00;;;26.80;;
51529;SDS011;37613;51.788;21.582;2022-10-31T00:45:46;38.70;;;22.20;;
51529;SDS011;37613;51.788;21.582;2022-10-31T00:49:48;41.40;;;23.70;;
51529;SDS011;37613;51.788;21.582;2022-10-31T00:53:50;44.90;;;24.50;;
51529;SDS011;37613;51.788;21.582;2022-10-31T00:57:52;43.10;;;23.80;;
51529;SDS011;37613;51.788;21.582;2022-10-31T01:01:54;41.20;;;22.50;;
51529;SDS011;37613;51.788;21.582;2022-10-31T01:06:00;38.80;;;22.60;;
51529;SDS011;37613;51.788;21.582;2022-10-31T01:10:05;44.30;;;20.70;;
51529;SDS011;37613;51.788;21.582;2022-10-31T01:14:08;37.80;;;20.40;;
51529;SDS011;37613;51.788;21.582;2022-10-31T01:18:11;42.00;;;21.10;;
51529;SDS011;37613;51.788;21.582;2022-10-31T01:22:13;39.20;;;18.80;;
51529;SDS011;37613;51.788;21.582;2022-10-31T01:26:19;30.90;;;18.10;;
51529;SDS011;37613;51.788;21.582;2022-10-31T01:30:23;34.00;;;18.00;;
51529;SDS011;37613;51.788;21.582;2022-10-31T01:34:25;32.60;;;16.00;;
51529;SDS011;37613;51.788;21.582;2022-10-31T01:38:27;29.30;;;15.20;;
51529;SDS011;37613;51.788;21.582;2022-10-31T01:42:29;30.50;;;15.60;;
51529;SDS011;37613;51.788;21.582;2022-10-31T01:46:36;29.10;;;14.20;;
51529;SDS011;37613;51.788;21.582;2022-10-31T01:50:40;27.80;;;14.70;;
51529;SDS011;37613;51.788;21.582;2022-10-31T01:54:48;28.50;;;13.80;;
51529;SDS011;37613;51.788;21.582;2022-10-31T01:59:01;27.40;;;14.00;;
51529;SDS011;37613;51.788;21.582;2022-10-31T02:03:06;23.50;;;12.60;;
51529;SDS011;37613;51.788;21.582;2022-10-31T02:07:16;25.10;;;13.20;;
51529;SDS011;37613;51.788;21.582;2022-10-31T02:11:25;23.70;;;13.80;;
51529;SDS011;37613;51.788;21.582;2022-10-31T02:15:30;27.60;;;14.30;;
51529;SDS011;37613;51.788;21.582;2022-10-31T02:23:59;27.50;;;13.80;;
51529;SDS011;37613;51.788;21.582;2022-10-31T02:46:19;29.50;;;13.60;;
51529;SDS011;37613;51.788;21.582;2022-10-31T02:50:48;28.00;;;13.30;;
51529;SDS011;37613;51.788;21.582;2022-10-31T02:54:56;24.60;;;13.60;;
51529;SDS011;37613;51.788;21.582;2022-10-31T02:58:59;25.80;;;12.00;;
51529;SDS011;37613;51.788;21.582;2022-10-31T03:12:38;22.80;;;12.20;;
51529;SDS011;37613;51.788;21.582;2022-10-31T03:16:47;31.30;;;13.50;;
51529;SDS011;37613;51.788;21.582;2022-10-31T03:20:56;24.20;;;12.70;;
51529;SDS011;37613;51.788;21.582;2022-10-31T03:25:15;28.20;;;15.00;;
51529;SDS011;37613;51.788;21.582;2022-10-31T03:29:20;28.90;;;12.90;;
51529;SDS011;37613;51.788;21.582;2022-10-31T03:33:29;25.10;;;12.70;;
51529;SDS011;37613;51.788;21.582;2022-10-31T03:37:35;25.30;;;12.30;;
51529;SDS011;37613;51.788;21.582;2022-10-31T03:41:42;24.00;;;12.30;;
51529;SDS011;37613;51.788;21.582;2022-10-31T03:45:48;24.00;;;11.60;;
51529;SDS011;37613;51.788;21.582;2022-10-31T03:49:51;25.30;;;12.30;;
51529;SDS011;37613;51.788;21.582;2022-10-31T03:53:57;27.10;;;11.70;;
51529;SDS011;37613;51.788;21.582;2022-10-31T03:58:45;25.10;;;11.20;;
51529;SDS011;37613;51.788;21.582;2022-10-31T04:07:08;23.10;;;10.00;;
51529;SDS011;37613;51.788;21.582;2022-10-31T04:11:12;22.10;;;11.00;;
51529;SDS011;37613;51.788;21.582;2022-10-31T04:15:18;24.50;;;10.60;;
51529;SDS011;37613;51.788;21.582;2022-10-31T04:19:21;20.00;;;10.60;;
51529;SDS011;37613;51.788;21.582;2022-10-31T04:23:24;18.70;;;10.70;;
51529;SDS011;37613;51.788;21.582;2022-10-31T04:27:27;23.70;;;10.80;;
51529;SDS011;37613;51.788;21.582;2022-10-31T04:31:29;21.40;;;10.80;;
51529;SDS011;37613;51.788;21.582;2022-10-31T04:35:31;18.00;;;9.80;;
51529;SDS011;37613;51.788;21.582;2022-10-31T04:39:33;20.80;;;11.30;;
51529;SDS011;37613;51.788;21.582;2022-10-31T04:43:35;26.10;;;13.50;;
51529;SDS011;37613;51.788;21.582;2022-10-31T04:47:37;22.50;;;11.70;;
51529;SDS011;37613;51.788;21.582;2022-10-31T04:51:39;24.20;;;11.80;;
51529;SDS011;37613;51.788;21.582;2022-10-31T04:55:41;26.10;;;13.40;;
51529;SDS011;37613;51.788;21.582;2022-10-31T04:59:43;26.80;;;14.60;;
51529;SDS011;37613;51.788;21.582;2022-10-31T05:03:45;20.80;;;13.10;;
51529;SDS011;37613;51.788;21.582;2022-10-31T05:07:47;19.10;;;11.30;;
51529;SDS011;37613;51.788;21.582;2022-10-31T05:11:50;24.50;;;13.10;;
51529;SDS011;37613;51.788;21.582;2022-10-31T05:15:52;26.80;;;13.70;;
51529;SDS011;37613;51.788;21.582;2022-10-31T05:19:54;25.10;;;13.70;;
51529;SDS011;37613;51.788;21.582;2022-10-31T05:23:56;31.10;;;15.70;;
51529;SDS011;37613;51.788;21.582;2022-10-31T05:27:57;24.60;;;13.40;;
51529;SDS011;37613;51.788;21.582;2022-10-31T05:32:00;26.70;;;12.80;;
51529;SDS011;37613;51.788;21.582;2022-10-31T05:36:02;20.30;;;12.00;;
51529;SDS011;37613;51.788;21.582;2022-10-31T05:40:05;21.50;;;12.90;;
51529;SDS011;37613;51.788;21.582;2022-10-31T05:44:09;39.30;;;15.20;;
51529;SDS011;37613;51.788;21.582;2022-10-31T05:48:11;28.70;;;15.40;;
51529;SDS011;37613;51.788;21.582;2022-10-31T05:52:14;23.50;;;14.10;;
51529;SDS011;37613;51.788;21.582;2022-10-31T05:56:16;20.60;;;12.40;;
51529;SDS011;37613;51.788;21.582;2022-10-31T06:00:18;18.00;;;11.70;;
51529;SDS011;37613;51.788;21.582;2022-10-31T06:04:20;25.70;;;14.20;;
51529;SDS011;37613;51.788;21.582;2022-10-31T06:08:25;104.90;;;40.00;;
51529;SDS011;37613;51.788;21.582;2022-10-31T06:12:27;145.80;;;50.00;;
51529;SDS011;37613;51.788;21.582;2022-10-31T06:16:29;28.80;;;14.60;;
51529;SDS011;37613;51.788;21.582;2022-10-31T06:20:40;15.30;;;10.20;;
51529;SDS011;37613;51.788;21.582;2022-10-31T06:24:45;19.00;;;9.90;;
51529;SDS011;37613;51.788;21.582;2022-10-31T06:28:48;34.40;;;15.50;;
51529;SDS011;37613;51.788;21.582;2022-10-31T06:32:52;40.50;;;16.60;;
51529;SDS011;37613;51.788;21.582;2022-10-31T06:36:54;53.20;;;22.50;;
51529;SDS011;37613;51.788;21.582;2022-10-31T06:40:56;54.20;;;25.10;;
51529;SDS011;37613;51.788;21.582;2022-10-31T06:44:58;31.80;;;20.70;;
51529;SDS011;37613;51.788;21.582;2022-10-31T06:49:00;26.40;;;15.80;;
51529;SDS011;37613;51.788;21.582;2022-10-31T06:53:02;31.10;;;17.40;;
51529;SDS011;37613;51.788;21.582;2022-10-31T06:57:04;24.80;;;14.20;;
51529;SDS011;37613;51.788;21.582;2022-10-31T07:01:06;23.70;;;15.20;;
51529;SDS011;37613;51.788;21.582;2022-10-31T07:05:08;25.50;;;16.10;;
51529;SDS011;37613;51.788;21.582;2022-10-31T07:09:10;28.00;;;17.80;;
51529;SDS011;37613;51.788;21.582;2022-10-31T07:13:12;22.10;;;14.70;;
51529;SDS011;37613;51.788;21.582;2022-10-31T07:17:16;27.30;;;15.20;;
51529;SDS011;37613;51.788;21.582;2022-10-31T07:21:17;26.70;;;15.70;;
51529;SDS011;37613;51.788;21.582;2022-10-31T07:25:20;24.10;;;15.30;;
51529;SDS011;37613;51.788;21.582;2022-10-31T07:29:22;35.80;;;20.20;;
51529;SDS011;37613;51.788;21.582;2022-10-31T07:33:24;25.40;;;16.90;;
51529;SDS011;37613;51.788;21.582;2022-10-31T07:37:30;30.40;;;17.30;;
51529;SDS011;37613;51.788;21.582;2022-10-31T07:41:31;26.00;;;16.70;;
51529;SDS011;37613;51.788;21.582;2022-10-31T07:45:33;25.50;;;17.90;;
51529;SDS011;37613;51.788;21.582;2022-10-31T07:49:35;23.80;;;17.60;;
51529;SDS011;37613;51.788;21.582;2022-10-31T07:53:37;29.20;;;21.10;;
51529;SDS011;37613;51.788;21.582;2022-10-31T07:57:39;32.20;;;21.30;;
51529;SDS011;37613;51.788;21.582;2022-10-31T08:01:42;31.40;;;21.00;;
51529;SDS011;37613;51.788;21.582;2022-10-31T08:05:46;22.50;;;15.70;;
51529;SDS011;37613;51.788;21.582;2022-10-31T08:09:51;22.90;;;15.30;;
51529;SDS011;37613;51.788;21.582;2022-10-31T08:13:53;20.50;;;14.20;;
51529;SDS011;37613;51.788;21.582;2022-10-31T08:17:55;22.80;;;13.00;;
51529;SDS011;37613;51.788;21.582;2022-10-31T08:21:57;22.50;;;12.40;;
51529;SDS011;37613;51.788;21.582;2022-10-31T08:26:00;20.00;;;12.70;;
51529;SDS011;37613;51.788;21.582;2022-10-31T08:30:02;17.50;;;13.00;;
51529;SDS011;37613;51.788;21.582;2022-10-31T08:34:04;17.50;;;12.20;;
51529;SDS011;37613;51.788;21.582;2022-10-31T08:38:06;17.00;;;11.70;;
51529;SDS011;37613;51.788;21.582;2022-10-31T08:42:11;30.10;;;17.60;;
51529;SDS011;37613;51.788;21.582;2022-10-31T08:46:13;16.10;;;11.70;;
51529;SDS011;37613;51.788;21.582;2022-10-31T08:50:15;14.90;;;11.10;;
51529;SDS011;37613;51.788;21.582;2022-10-31T08:54:16;16.50;;;11.10;;
51529;SDS011;37613;51.788;21.582;2022-10-31T08:58:19;13.50;;;10.50;;
51529;SDS011;37613;51.788;21.582;2022-10-31T09:06:23;15.30;;;10.80;;
51529;SDS011;37613;51.788;21.582;2022-10-31T09:10:25;25.00;;;14.10;;
51529;SDS011;37613;51.788;21.582;2022-10-31T09:14:29;16.40;;;11.00;;
51529;SDS011;37613;51.788;21.582;2022-10-31T09:18:31;15.00;;;10.30;;
51529;SDS011;37613;51.788;21.582;2022-10-31T09:22:33;17.90;;;11.10;;
51529;SDS011;37613;51.788;21.582;2022-10-31T09:26:35;17.50;;;10.90;;
51529;SDS011;37613;51.788;21.582;2022-10-31T09:30:37;21.80;;;14.10;;
51529;SDS011;37613;51.788;21.582;2022-10-31T09:34:39;29.20;;;19.30;;
51529;SDS011;37613;51.788;21.582;2022-10-31T09:38:41;18.10;;;12.50;;
51529;SDS011;37613;51.788;21.582;2022-10-31T09:47:06;20.70;;;12.90;;
51529;SDS011;37613;51.788;21.582;2022-10-31T09:51:27;21.80;;;13.70;;
51529;SDS011;37613;51.788;21.582;2022-10-31T09:55:37;16.30;;;11.80;;
51529;SDS011;37613;51.788;21.582;2022-10-31T09:59:43;19.10;;;12.80;;
51529;SDS011;37613;51.788;21.582;2022-10-31T10:03:47;16.60;;;11.60;;
51529;SDS011;37613;51.788;21.582;2022-10-31T10:08:41;15.00;;;10.80;;
51529;SDS011;37613;51.788;21.582;2022-10-31T10:21:45;18.10;;;10.30;;
51529;SDS011;37613;51.788;21.582;2022-10-31T10:25:39;16.20;;;9.50;;
51529;SDS011;37613;51.788;21.582;2022-10-31T10:29:44;13.50;;;9.30;;
51529;SDS011;37613;51.788;21.582;2022-10-31T10:34:01;15.80;;;10.30;;
51529;SDS011;37613;51.788;21.582;2022-10-31T10:38:16;12.60;;;9.90;;
51529;SDS011;37613;51.788;21.582;2022-10-31T10:42:24;11.40;;;9.50;;
51529;SDS011;37613;51.788;21.582;2022-10-31T10:51:16;15.90;;;9.70;;
51529;SDS011;37613;51.788;21.582;2022-10-31T10:55:29;11.60;;;9.00;;
51529;SDS011;37613;51.788;21.582;2022-10-31T10:59:34;15.90;;;8.70;;
51529;SDS011;37613;51.788;21.582;2022-10-31T11:03:37;12.20;;;8.70;;
51529;SDS011;37613;51.788;21.582;2022-10-31T11:07:39;13.30;;;9.40;;
51529;SDS011;37613;51.788;21.582;2022-10-31T11:11:42;13.70;;;8.80;;
51529;SDS011;37613;51.788;21.582;2022-10-31T11:24:16;12.40;;;8.20;;
51529;SDS011;37613;51.788;21.582;2022-10-31T11:28:20;18.60;;;10.90;;
51529;SDS011;37613;51.788;21.582;2022-10-31T11:32:24;16.90;;;9.00;;
51529;SDS011;37613;51.788;21.582;2022-10-31T11:36:29;11.30;;;7.70;;
51529;SDS011;37613;51.788;21.582;2022-10-31T11:40:34;11.50;;;7.50;;
51529;SDS011;37613;51.788;21.582;2022-10-31T11:44:36;9.00;;;6.20;;
51529;SDS011;37613;51.788;21.582;2022-10-31T11:48:51;11.20;;;6.20;;
51529;SDS011;37613;51.788;21.582;2022-10-31T11:52:56;9.80;;;5.90;;
51529;SDS011;37613;51.788;21.582;2022-10-31T11:56:58;15.50;;;8.00;;
51529;SDS011;37613;51.788;21.582;2022-10-31T12:01:01;18.20;;;7.60;;
51529;SDS011;37613;51.788;21.582;2022-10-31T12:05:19;11.30;;;6.00;;
51529;SDS011;37613;51.788;21.582;2022-10-31T12:09:27;10.40;;;6.40;;
51529;SDS011;37613;51.788;21.582;2022-10-31T12:13:34;9.90;;;5.90;;
51529;SDS011;37613;51.788;21.582;2022-10-31T12:18:03;18.40;;;11.10;;
51529;SDS011;37613;51.788;21.582;2022-10-31T12:22:20;16.30;;;12.70;;
51529;SDS011;37613;51.788;21.582;2022-10-31T12:26:59;18.00;;;13.90;;
51529;SDS011;37613;51.788;21.582;2022-10-31T12:49:31;22.20;;;17.30;;
51529;SDS011;37613;51.788;21.582;2022-10-31T12:58:03;28.70;;;23.40;;
51529;SDS011;37613;51.788;21.582;2022-10-31T13:06:36;24.70;;;18.10;;
51529;SDS011;37613;51.788;21.582;2022-10-31T13:15:18;48.30;;;33.40;;
51529;SDS011;37613;51.788;21.582;2022-10-31T13:23:44;17.40;;;14.30;;
51529;SDS011;37613;51.788;21.582;2022-10-31T13:32:04;22.80;;;15.70;;
51529;SDS011;37613;51.788;21.582;2022-10-31T13:44:36;33.50;;;22.60;;
51529;SDS011;37613;51.788;21.582;2022-10-31T13:48:41;30.90;;;17.90;;
51529;SDS011;37613;51.788;21.582;2022-10-31T13:56:52;45.00;;;25.60;;
51529;SDS011;37613;51.788;21.582;2022-10-31T14:05:22;18.80;;;15.00;;
51529;SDS011;37613;51.788;21.582;2022-10-31T14:18:06;37.70;;;23.90;;
51529;SDS011;37613;51.788;21.582;2022-10-31T14:22:23;35.70;;;21.90;;
51529;SDS011;37613;51.788;21.582;2022-10-31T14:26:31;38.10;;;23.60;;
51529;SDS011;37613;51.788;21.582;2022-10-31T14:30:35;50.40;;;29.30;;
51529;SDS011;37613;51.788;21.582;2022-10-31T14:34:41;62.20;;;32.20;;
51529;SDS011;37613;51.788;21.582;2022-10-31T14:39:08;45.30;;;28.70;;
51529;SDS011;37613;51.788;21.582;2022-10-31T14:43:27;42.10;;;26.60;;
51529;SDS011;37613;51.788;21.582;2022-10-31T14:52:16;32.80;;;23.70;;
51529;SDS011;37613;51.788;21.582;2022-10-31T14:56:23;34.30;;;23.30;;
51529;SDS011;37613;51.788;21.582;2022-10-31T15:00:28;50.50;;;34.00;;
51529;SDS011;37613;51.788;21.582;2022-10-31T15:04:34;38.90;;;27.60;;
51529;SDS011;37613;51.788;21.582;2022-10-31T15:08:38;44.60;;;29.70;;
51529;SDS011;37613;51.788;21.582;2022-10-31T15:12:48;56.60;;;38.30;;
51529;SDS011;37613;51.788;21.582;2022-10-31T15:16:50;56.50;;;35.40;;
51529;SDS011;37613;51.788;21.582;2022-10-31T15:20:53;52.50;;;34.90;;
51529;SDS011;37613;51.788;21.582;2022-10-31T15:24:56;60.80;;;38.20;;
51529;SDS011;37613;51.788;21.582;2022-10-31T15:29:00;58.50;;;36.30;;
51529;SDS011;37613;51.788;21.582;2022-10-31T15:33:18;127.00;;;72.90;;
51529;SDS011;37613;51.788;21.582;2022-10-31T15:37:23;127.90;;;61.20;;
51529;SDS011;37613;51.788;21.582;2022-10-31T15:41:32;94.30;;;57.50;;
51529;SDS011;37613;51.788;21.582;2022-10-31T15:45:52;104.80;;;61.00;;
51529;SDS011;37613;51.788;21.582;2022-10-31T15:49:54;89.70;;;53.40;;
51529;SDS011;37613;51.788;21.582;2022-10-31T15:53:59;91.60;;;54.20;;
51529;SDS011;37613;51.788;21.582;2022-10-31T15:58:02;102.00;;;50.70;;
51529;SDS011;37613;51.788;21.582;2022-10-31T16:02:12;94.50;;;52.60;;
51529;SDS011;37613;51.788;21.582;2022-10-31T16:06:19;94.70;;;49.60;;
51529;SDS011;37613;51.788;21.582;2022-10-31T16:10:24;84.40;;;45.60;;
51529;SDS011;37613;51.788;21.582;2022-10-31T16:14:28;84.30;;;44.70;;
51529;SDS011;37613;51.788;21.582;2022-10-31T16:18:35;85.40;;;48.60;;
51529;SDS011;37613;51.788;21.582;2022-10-31T16:22:39;92.10;;;56.10;;
51529;SDS011;37613;51.788;21.582;2022-10-31T16:26:46;78.60;;;46.40;;
51529;SDS011;37613;51.788;21.582;2022-10-31T16:30:51;109.10;;;51.00;;
51529;SDS011;37613;51.788;21.582;2022-10-31T16:35:16;134.70;;;87.50;;
51529;SDS011;37613;51.788;21.582;2022-10-31T16:39:19;102.00;;;58.00;;
51529;SDS011;37613;51.788;21.582;2022-10-31T16:43:21;102.40;;;50.60;;
51529;SDS011;37613;51.788;21.582;2022-10-31T16:47:24;77.60;;;41.40;;
51529;SDS011;37613;51.788;21.582;2022-10-31T16:51:26;64.80;;;34.80;;
51529;SDS011;37613;51.788;21.582;2022-10-31T16:55:28;66.90;;;42.60;;
51529;SDS011;37613;51.788;21.582;2022-10-31T16:59:30;73.80;;;40.00;;
51529;SDS011;37613;51.788;21.582;2022-10-31T17:03:34;66.60;;;36.10;;
51529;SDS011;37613;51.788;21.582;2022-10-31T17:07:37;60.40;;;35.20;;
51529;SDS011;37613;51.788;21.582;2022-10-31T17:11:41;58.70;;;33.00;;
51529;SDS011;37613;51.788;21.582;2022-10-31T17:15:47;74.70;;;36.60;;
51529;SDS011;37613;51.788;21.582;2022-10-31T17:19:53;64.80;;;34.70;;
51529;SDS011;37613;51.788;21.582;2022-10-31T17:23:55;77.60;;;42.60;;
51529;SDS011;37613;51.788;21.582;2022-10-31T17:27:57;120.10;;;59.80;;
51529;SDS011;37613;51.788;21.582;2022-10-31T17:32:00;65.20;;;38.10;;
51529;SDS011;37613;51.788;21.582;2022-10-31T17:36:05;56.10;;;35.60;;
51529;SDS011;37613;51.788;21.582;2022-10-31T17:40:08;66.20;;;39.60;;
51529;SDS011;37613;51.788;21.582;2022-10-31T17:44:11;65.80;;;38.20;;
51529;SDS011;37613;51.788;21.582;2022-10-31T17:48:13;59.60;;;34.50;;
51529;SDS011;37613;51.788;21.582;2022-10-31T17:52:15;80.10;;;42.00;;
51529;SDS011;37613;51.788;21.582;2022-10-31T17:56:17;91.00;;;46.70;;
51529;SDS011;37613;51.788;21.582;2022-10-31T18:00:19;85.60;;;43.40;;
51529;SDS011;37613;51.788;21.582;2022-10-31T18:04:24;77.30;;;38.90;;
51529;SDS011;37613;51.788;21.582;2022-10-31T18:08:27;78.90;;;38.00;;
51529;SDS011;37613;51.788;21.582;2022-10-31T18:12:31;75.90;;;38.20;;
51529;SDS011;37613;51.788;21.582;2022-10-31T18:16:37;65.70;;;34.10;;
51529;SDS011;37613;51.788;21.582;2022-10-31T18:20:39;70.20;;;36.50;;
51529;SDS011;37613;51.788;21.582;2022-10-31T18:24:41;67.80;;;35.50;;
51529;SDS011;37613;51.788;21.582;2022-10-31T18:28:43;73.30;;;37.60;;
51529;SDS011;37613;51.788;21.582;2022-10-31T18:32:49;79.00;;;39.10;;
51529;SDS011;37613;51.788;21.582;2022-10-31T18:36:52;90.10;;;47.40;;
51529;SDS011;37613;51.788;21.582;2022-10-31T18:40:54;104.50;;;58.10;;
51529;SDS011;37613;51.788;21.582;2022-10-31T18:44:57;83.20;;;42.30;;
51529;SDS011;37613;51.788;21.582;2022-10-31T18:48:59;88.80;;;43.00;;
51529;SDS011;37613;51.788;21.582;2022-10-31T18:53:02;89.20;;;41.70;;
51529;SDS011;37613;51.788;21.582;2022-10-31T18:57:04;96.80;;;42.30;;
51529;SDS011;37613;51.788;21.582;2022-10-31T19:01:06;90.00;;;41.10;;
51529;SDS011;37613;51.788;21.582;2022-10-31T19:05:10;92.80;;;42.30;;
51529;SDS011;37613;51.788;21.582;2022-10-31T19:09:12;168.00;;;96.70;;
51529;SDS011;37613;51.788;21.582;2022-10-31T19:13:15;183.30;;;114.00;;
51529;SDS011;37613;51.788;21.582;2022-10-31T19:17:17;208.40;;;110.80;;
51529;SDS011;37613;51.788;21.582;2022-10-31T19:21:19;187.10;;;110.40;;
51529;SDS011;37613;51.788;21.582;2022-10-31T19:25:21;126.50;;;61.60;;
51529;SDS011;37613;51.788;21.582;2022-10-31T19:29:24;89.30;;;39.40;;
51529;SDS011;37613;51.788;21.582;2022-10-31T19:33:26;87.90;;;35.70;;
51529;SDS011;37613;51.788;21.582;2022-10-31T19:37:31;87.20;;;37.40;;
51529;SDS011;37613;51.788;21.582;2022-10-31T19:41:33;89.80;;;37.20;;
51529;SDS011;37613;51.788;21.582;2022-10-31T19:45:35;86.40;;;34.50;;
51529;SDS011;37613;51.788;21.582;2022-10-31T19:49:38;65.60;;;28.80;;
51529;SDS011;37613;51.788;21.582;2022-10-31T19:53:40;74.70;;;28.70;;
51529;SDS011;37613;51.788;21.582;2022-10-31T19:57:43;77.00;;;29.30;;
51529;SDS011;37613;51.788;21.582;2022-10-31T20:01:46;72.30;;;28.10;;
51529;SDS011;37613;51.788;21.582;2022-10-31T20:05:49;63.50;;;28.20;;
51529;SDS011;37613;51.788;21.582;2022-10-31T20:09:51;78.60;;;27.70;;
51529;SDS011;37613;51.788;21.582;2022-10-31T20:13:53;83.60;;;32.90;;
51529;SDS011;37613;51.788;21.582;2022-10-31T20:17:57;101.80;;;33.40;;
51529;SDS011;37613;51.788;21.582;2022-10-31T20:22:05;85.80;;;29.50;;
51529;SDS011;37613;51.788;21.582;2022-10-31T20:26:14;78.00;;;30.80;;
51529;SDS011;37613;51.788;21.582;2022-10-31T20:30:20;84.30;;;30.00;;
51529;SDS011;37613;51.788;21.582;2022-10-31T20:34:23;82.60;;;30.30;;
51529;SDS011;37613;51.788;21.582;2022-10-31T20:38:25;79.40;;;29.60;;
51529;SDS011;37613;51.788;21.582;2022-10-31T20:42:31;96.90;;;36.20;;
51529;SDS011;37613;51.788;21.582;2022-10-31T20:46:33;109.60;;;38.40;;
51529;SDS011;37613;51.788;21.582;2022-10-31T20:50:37;96.90;;;29.20;;
51529;SDS011;37613;51.788;21.582;2022-10-31T20:54:39;71.50;;;28.30;;
51529;SDS011;37613;51.788;21.582;2022-10-31T20:58:42;77.00;;;27.20;;
51529;SDS011;37613;51.788;21.582;2022-10-31T21:06:46;82.50;;;29.00;;
51529;SDS011;37613;51.788;21.582;2022-10-31T21:10:49;88.20;;;28.30;;
51529;SDS011;37613;51.788;21.582;2022-10-31T21:14:52;92.40;;;30.00;;
51529;SDS011;37613;51.788;21.582;2022-10-31T21:18:54;80.60;;;29.00;;
51529;SDS011;37613;51.788;21.582;2022-10-31T21:22:56;74.80;;;28.60;;
51529;SDS011;37613;51.788;21.582;2022-10-31T21:26:59;87.40;;;31.30;;
51529;SDS011;37613;51.788;21.582;2022-10-31T21:31:04;93.80;;;29.50;;
51529;SDS011;37613;51.788;21.582;2022-10-31T21:35:08;101.90;;;36.60;;
51529;SDS011;37613;51.788;21.582;2022-10-31T21:39:11;110.30;;;33.40;;
51529;SDS011;37613;51.788;21.582;2022-10-31T21:43:13;111.30;;;39.10;;
51529;SDS011;37613;51.788;21.582;2022-10-31T21:47:16;94.20;;;33.40;;
51529;SDS011;37613;51.788;21.582;2022-10-31T21:51:19;91.10;;;29.60;;
51529;SDS011;37613;51.788;21.582;2022-10-31T21:55:24;82.70;;;24.80;;
51529;SDS011;37613;51.788;21.582;2022-10-31T21:59:26;89.80;;;28.20;;
51529;SDS011;37613;51.788;21.582;2022-10-31T22:03:29;98.60;;;27.70;;
51529;SDS011;37613;51.788;21.582;2022-10-31T22:07:34;107.20;;;28.50;;
51529;SDS011;37613;51.788;21.582;2022-10-31T22:11:37;97.70;;;22.80;;
51529;SDS011;37613;51.788;21.582;2022-10-31T22:15:42;82.00;;;23.70;;
51529;SDS011;37613;51.788;21.582;2022-10-31T22:19:44;71.50;;;22.70;;
51529;SDS011;37613;51.788;21.582;2022-10-31T22:23:49;96.60;;;28.30;;
51529;SDS011;37613;51.788;21.582;2022-10-31T22:27:53;89.90;;;26.00;;
51529;SDS011;37613;51.788;21.582;2022-10-31T22:31:54;83.50;;;25.70;;
51529;SDS011;37613;51.788;21.582;2022-10-31T22:36:00;97.10;;;26.60;;
51529;SDS011;37613;51.788;21.582;2022-10-31T22:40:06;88.40;;;27.40;;
51529;SDS011;37613;51.788;21.582;2022-10-31T22:44:09;92.60;;;28.40;;
51529;SDS011;37613;51.788;21.582;2022-10-31T22:48:11;101.10;;;25.20;;
51529;SDS011;37613;51.788;21.582;2022-10-31T22:52:14;76.40;;;24.60;;
51529;SDS011;37613;51.788;21.582;2022-10-31T22:56:17;85.40;;;24.00;;
51529;SDS011;37613;51.788;21.582;2022-10-31T23:00:21;79.60;;;22.50;;
51529;SDS011;37613;51.788;21.582;2022-10-31T23:04:25;67.40;;;22.10;;
51529;SDS011;37613;51.788;21.582;2022-10-31T23:12:29;56.90;;;19.60;;
51529;SDS011;37613;51.788;21.582;2022-10-31T23:16:53;50.20;;;20.80;;
51529;SDS011;37613;51.788;21.582;2022-10-31T23:20:56;60.10;;;18.90;;
51529;SDS011;37613;51.788;21.582;2022-10-31T23:24:58;61.60;;;22.30;;
51529;SDS011;37613;51.788;21.582;2022-10-31T23:29:00;48.80;;;21.00;;
51529;SDS011;37613;51.788;21.582;2022-10-31T23:33:02;74.40;;;20.00;;
51529;SDS011;37613;51.788;21.582;2022-10-31T23:37:04;78.60;;;20.30;;
51529;SDS011;37613;51.788;21.582;2022-10-31T23:41:07;62.90;;;22.10;;
51529;SDS011;37613;51.788;21.582;2022-10-31T23:45:09;68.90;;;22.10;;
51529;SDS011;37613;51.788;21.582;2022-10-31T23:49:11;53.30;;;20.30;;
51529;SDS011;37613;51.788;21.582;2022-10-31T23:53:12;64.30;;;22.70;;
51529;SDS011;37613;51.788;21.582;2022-10-31T23:57:15;48.70;;;20.70;;
